sensor_id;sensor_type;location;lat;lon;timestamp;P1;durP1;ratioP1;P2;durP2;ratioP2
1677;SDS011;6034;46.864;15.216;2024-03-08T06:00:54;16.40;;;9.50;;
1677;SDS011;6034;46.864;15.216;2024-03-08T06:03:22;109.25;;;52.78;;
1677;SDS011;6034;46.864;15.216;2024-03-08T06:05:50;184.10;;;88.18;;
1677;SDS011;6034;46.864;15.216;2024-03-08T06:08:18;58.85;;;30.27;;
1677;SDS011;6034;46.864;15.216;2024-03-08T06:10:45;13.45;;;8.63;;
1677;SDS011;6034;46.864;15.216;2024-03-08T06:13:17;11.45;;;7.88;;
1677;SDS011;6034;46.864;15.216;2024-03-08T06:15:45;10.02;;;7.78;;
1677;SDS011;6034;46.864;15.216;2024-03-08T06:18:14;11.75;;;6.90;;
1677;SDS011;6034;46.864;15.216;2024-03-08T06:20:41;9.82;;;7.20;;
1677;SDS011;6034;46.864;15.216;2024-03-08T06:23:11;10.23;;;7.57;;
1677;SDS011;6034;46.864;15.216;2024-03-08T06:25:43;15.88;;;10.50;;
1677;SDS011;6034;46.864;15.216;2024-03-08T06:28:10;15.13;;;12.30;;
1677;SDS011;6034;46.864;15.216;2024-03-08T06:30:39;20.30;;;14.73;;
1677;SDS011;6034;46.864;15.216;2024-03-08T06:33:07;11.75;;;9.25;;
1677;SDS011;6034;46.864;15.216;2024-03-08T06:35:37;12.40;;;7.85;;
1677;SDS011;6034;46.864;15.216;2024-03-08T06:38:04;10.23;;;7.63;;
1677;SDS011;6034;46.864;15.216;2024-03-08T06:40:32;8.95;;;6.68;;
1677;SDS011;6034;46.864;15.216;2024-03-08T06:42:59;9.45;;;6.60;;
1677;SDS011;6034;46.864;15.216;2024-03-08T06:45:29;8.32;;;7.40;;
1677;SDS011;6034;46.864;15.216;2024-03-08T06:47:56;11.23;;;7.72;;
1677;SDS011;6034;46.864;15.216;2024-03-08T06:50:24;8.80;;;7.68;;
1677;SDS011;6034;46.864;15.216;2024-03-08T06:52:53;10.00;;;7.78;;
1677;SDS011;6034;46.864;15.216;2024-03-08T06:55:20;12.25;;;9.40;;
1677;SDS011;6034;46.864;15.216;2024-03-08T06:57:48;10.90;;;8.60;;
1677;SDS011;6034;46.864;15.216;2024-03-08T07:00:15;10.35;;;7.75;;
1677;SDS011;6034;46.864;15.216;2024-03-08T07:02:46;9.00;;;7.55;;
1677;SDS011;6034;46.864;15.216;2024-03-08T07:05:14;10.07;;;8.10;;
1677;SDS011;6034;46.864;15.216;2024-03-08T07:07:42;10.45;;;7.75;;
1677;SDS011;6034;46.864;15.216;2024-03-08T07:10:11;8.32;;;6.82;;
1677;SDS011;6034;46.864;15.216;2024-03-08T07:12:40;9.40;;;7.65;;
1677;SDS011;6034;46.864;15.216;2024-03-08T07:15:08;8.40;;;7.30;;
1677;SDS011;6034;46.864;15.216;2024-03-08T07:17:38;10.75;;;7.10;;
1677;SDS011;6034;46.864;15.216;2024-03-08T07:20:06;8.75;;;7.15;;
1677;SDS011;6034;46.864;15.216;2024-03-08T07:22:37;9.85;;;7.38;;
1677;SDS011;6034;46.864;15.216;2024-03-08T07:25:06;9.10;;;7.40;;
1677;SDS011;6034;46.864;15.216;2024-03-08T07:27:47;10.23;;;7.50;;
1677;SDS011;6034;46.864;15.216;2024-03-08T07:30:14;11.73;;;7.85;;
1677;SDS011;6034;46.864;15.216;2024-03-08T07:32:58;12.38;;;9.77;;
1677;SDS011;6034;46.864;15.216;2024-03-08T07:35:27;11.23;;;8.40;;
1677;SDS011;6034;46.864;15.216;2024-03-08T07:37:54;10.95;;;8.85;;
1677;SDS011;6034;46.864;15.216;2024-03-08T07:40:23;12.85;;;9.50;;
1677;SDS011;6034;46.864;15.216;2024-03-08T07:42:52;14.63;;;9.82;;
1677;SDS011;6034;46.864;15.216;2024-03-08T07:45:19;10.40;;;9.25;;
1677;SDS011;6034;46.864;15.216;2024-03-08T07:47:47;11.35;;;8.27;;
1677;SDS011;6034;46.864;15.216;2024-03-08T07:50:16;10.55;;;8.60;;
1677;SDS011;6034;46.864;15.216;2024-03-08T07:52:44;11.55;;;8.70;;
1677;SDS011;6034;46.864;15.216;2024-03-08T07:55:12;13.57;;;9.82;;
1677;SDS011;6034;46.864;15.216;2024-03-08T07:57:40;11.38;;;8.45;;
1677;SDS011;6034;46.864;15.216;2024-03-08T08:00:10;10.73;;;8.20;;
1677;SDS011;6034;46.864;15.216;2024-03-08T08:02:42;10.15;;;8.30;;
1677;SDS011;6034;46.864;15.216;2024-03-08T08:05:10;12.52;;;9.57;;
1677;SDS011;6034;46.864;15.216;2024-03-08T08:07:39;11.10;;;8.63;;
1677;SDS011;6034;46.864;15.216;2024-03-08T08:10:09;12.35;;;9.48;;
1677;SDS011;6034;46.864;15.216;2024-03-08T08:12:43;14.43;;;9.13;;
1677;SDS011;6034;46.864;15.216;2024-03-08T08:15:13;11.98;;;9.15;;
1677;SDS011;6034;46.864;15.216;2024-03-08T08:17:41;12.05;;;8.88;;
1677;SDS011;6034;46.864;15.216;2024-03-08T08:20:09;9.90;;;7.70;;
1677;SDS011;6034;46.864;15.216;2024-03-08T08:22:37;10.88;;;8.00;;
1677;SDS011;6034;46.864;15.216;2024-03-08T08:25:05;10.63;;;8.25;;
1677;SDS011;6034;46.864;15.216;2024-03-08T08:27:33;13.55;;;9.35;;
1677;SDS011;6034;46.864;15.216;2024-03-08T08:30:01;12.10;;;9.48;;
1677;SDS011;6034;46.864;15.216;2024-03-08T08:32:34;13.15;;;9.27;;
1677;SDS011;6034;46.864;15.216;2024-03-08T08:35:02;12.27;;;8.82;;
1677;SDS011;6034;46.864;15.216;2024-03-08T08:37:31;10.35;;;7.30;;
1677;SDS011;6034;46.864;15.216;2024-03-08T08:40:01;12.30;;;9.10;;
1677;SDS011;6034;46.864;15.216;2024-03-08T08:42:30;11.73;;;9.23;;
1677;SDS011;6034;46.864;15.216;2024-03-08T08:44:58;12.07;;;8.93;;
1677;SDS011;6034;46.864;15.216;2024-03-08T08:47:26;13.25;;;9.40;;
1677;SDS011;6034;46.864;15.216;2024-03-08T08:49:55;13.57;;;9.18;;
1677;SDS011;6034;46.864;15.216;2024-03-08T08:52:23;9.32;;;7.13;;
1677;SDS011;6034;46.864;15.216;2024-03-08T08:54:51;12.07;;;9.98;;
1677;SDS011;6034;46.864;15.216;2024-03-08T08:57:18;11.90;;;9.85;;
1677;SDS011;6034;46.864;15.216;2024-03-08T08:59:46;13.52;;;10.15;;
1677;SDS011;6034;46.864;15.216;2024-03-08T09:02:13;11.93;;;8.38;;
1677;SDS011;6034;46.864;15.216;2024-03-08T09:04:41;10.93;;;8.25;;
1677;SDS011;6034;46.864;15.216;2024-03-08T09:07:11;11.63;;;8.60;;
1677;SDS011;6034;46.864;15.216;2024-03-08T09:09:39;10.77;;;8.40;;
1677;SDS011;6034;46.864;15.216;2024-03-08T09:12:07;12.95;;;8.50;;
1677;SDS011;6034;46.864;15.216;2024-03-08T09:14:35;10.85;;;9.30;;
1677;SDS011;6034;46.864;15.216;2024-03-08T09:17:02;12.63;;;10.50;;
1677;SDS011;6034;46.864;15.216;2024-03-08T09:19:30;11.95;;;9.90;;
1677;SDS011;6034;46.864;15.216;2024-03-08T09:21:58;12.93;;;11.32;;
1677;SDS011;6034;46.864;15.216;2024-03-08T09:24:27;11.55;;;9.65;;
1677;SDS011;6034;46.864;15.216;2024-03-08T09:26:54;13.00;;;9.07;;
1677;SDS011;6034;46.864;15.216;2024-03-08T09:29:22;11.35;;;9.02;;
1677;SDS011;6034;46.864;15.216;2024-03-08T09:31:49;12.77;;;10.65;;
1677;SDS011;6034;46.864;15.216;2024-03-08T09:34:18;14.57;;;10.48;;
1677;SDS011;6034;46.864;15.216;2024-03-08T09:36:47;13.00;;;10.25;;
1677;SDS011;6034;46.864;15.216;2024-03-08T09:39:14;13.18;;;10.65;;
1677;SDS011;6034;46.864;15.216;2024-03-08T09:41:45;15.40;;;9.95;;
1677;SDS011;6034;46.864;15.216;2024-03-08T09:44:14;13.43;;;10.45;;
1677;SDS011;6034;46.864;15.216;2024-03-08T09:46:42;16.50;;;10.60;;
1677;SDS011;6034;46.864;15.216;2024-03-08T09:49:09;15.20;;;11.75;;
1677;SDS011;6034;46.864;15.216;2024-03-08T09:51:37;13.40;;;11.35;;
1677;SDS011;6034;46.864;15.216;2024-03-08T09:54:06;14.35;;;10.73;;
1677;SDS011;6034;46.864;15.216;2024-03-08T09:56:34;15.40;;;10.93;;
1677;SDS011;6034;46.864;15.216;2024-03-08T09:59:03;13.70;;;11.07;;
1677;SDS011;6034;46.864;15.216;2024-03-08T10:01:48;15.25;;;10.70;;
1677;SDS011;6034;46.864;15.216;2024-03-08T10:04:17;13.55;;;11.05;;
1677;SDS011;6034;46.864;15.216;2024-03-08T10:06:45;14.40;;;10.55;;
1677;SDS011;6034;46.864;15.216;2024-03-08T10:09:12;16.17;;;12.32;;
1677;SDS011;6034;46.864;15.216;2024-03-08T10:11:41;11.93;;;10.68;;
1677;SDS011;6034;46.864;15.216;2024-03-08T10:14:10;14.30;;;11.05;;
1677;SDS011;6034;46.864;15.216;2024-03-08T10:16:38;17.92;;;11.15;;
1677;SDS011;6034;46.864;15.216;2024-03-08T10:19:05;13.60;;;11.88;;
1677;SDS011;6034;46.864;15.216;2024-03-08T10:21:33;14.13;;;11.20;;
1677;SDS011;6034;46.864;15.216;2024-03-08T10:24:02;14.05;;;10.43;;
1677;SDS011;6034;46.864;15.216;2024-03-08T10:26:29;16.08;;;11.80;;
1677;SDS011;6034;46.864;15.216;2024-03-08T10:28:57;13.07;;;10.35;;
1677;SDS011;6034;46.864;15.216;2024-03-08T10:31:26;12.60;;;9.00;;
1677;SDS011;6034;46.864;15.216;2024-03-08T10:33:54;13.25;;;10.07;;
1677;SDS011;6034;46.864;15.216;2024-03-08T10:36:21;12.32;;;8.40;;
1677;SDS011;6034;46.864;15.216;2024-03-08T10:38:50;12.88;;;9.20;;
1677;SDS011;6034;46.864;15.216;2024-03-08T10:41:19;14.05;;;10.20;;
1677;SDS011;6034;46.864;15.216;2024-03-08T10:43:54;12.00;;;9.65;;
1677;SDS011;6034;46.864;15.216;2024-03-08T10:46:42;11.63;;;9.63;;
1677;SDS011;6034;46.864;15.216;2024-03-08T10:49:22;13.15;;;10.45;;
1677;SDS011;6034;46.864;15.216;2024-03-08T10:51:59;12.82;;;10.65;;
1677;SDS011;6034;46.864;15.216;2024-03-08T10:54:29;12.10;;;9.32;;
1677;SDS011;6034;46.864;15.216;2024-03-08T10:56:59;13.20;;;10.30;;
1677;SDS011;6034;46.864;15.216;2024-03-08T10:59:29;12.40;;;9.90;;
1677;SDS011;6034;46.864;15.216;2024-03-08T11:01:58;12.25;;;9.40;;
1677;SDS011;6034;46.864;15.216;2024-03-08T11:04:27;12.45;;;9.40;;
1677;SDS011;6034;46.864;15.216;2024-03-08T11:06:59;12.35;;;10.95;;
1677;SDS011;6034;46.864;15.216;2024-03-08T11:09:31;14.55;;;11.35;;
1677;SDS011;6034;46.864;15.216;2024-03-08T11:14:55;14.15;;;10.30;;
1677;SDS011;6034;46.864;15.216;2024-03-08T11:17:48;15.25;;;12.50;;
1677;SDS011;6034;46.864;15.216;2024-03-08T11:20:17;11.88;;;10.48;;
1677;SDS011;6034;46.864;15.216;2024-03-08T11:22:49;15.10;;;10.60;;
1677;SDS011;6034;46.864;15.216;2024-03-08T11:28:14;11.93;;;9.15;;
1677;SDS011;6034;46.864;15.216;2024-03-08T11:30:44;13.80;;;9.95;;
1677;SDS011;6034;46.864;15.216;2024-03-08T11:33:15;13.65;;;9.68;;
1677;SDS011;6034;46.864;15.216;2024-03-08T11:35:43;11.48;;;8.88;;
1677;SDS011;6034;46.864;15.216;2024-03-08T11:38:12;10.70;;;9.55;;
1677;SDS011;6034;46.864;15.216;2024-03-08T11:40:41;12.48;;;9.52;;
1677;SDS011;6034;46.864;15.216;2024-03-08T11:43:09;14.20;;;9.98;;
1677;SDS011;6034;46.864;15.216;2024-03-08T11:45:36;10.25;;;8.95;;
1677;SDS011;6034;46.864;15.216;2024-03-08T11:48:07;10.65;;;8.77;;
1677;SDS011;6034;46.864;15.216;2024-03-08T11:50:39;10.27;;;8.20;;
1677;SDS011;6034;46.864;15.216;2024-03-08T11:53:08;11.68;;;8.27;;
1677;SDS011;6034;46.864;15.216;2024-03-08T11:55:38;12.90;;;10.10;;
1677;SDS011;6034;46.864;15.216;2024-03-08T11:58:07;13.23;;;10.02;;
1677;SDS011;6034;46.864;15.216;2024-03-08T12:00:36;9.35;;;7.72;;
1677;SDS011;6034;46.864;15.216;2024-03-08T12:03:04;10.00;;;8.45;;
1677;SDS011;6034;46.864;15.216;2024-03-08T12:05:33;13.68;;;8.90;;
1677;SDS011;6034;46.864;15.216;2024-03-08T12:08:02;12.73;;;8.85;;
1677;SDS011;6034;46.864;15.216;2024-03-08T12:10:32;12.45;;;8.70;;
1677;SDS011;6034;46.864;15.216;2024-03-08T12:13:00;10.18;;;7.95;;
1677;SDS011;6034;46.864;15.216;2024-03-08T12:15:28;13.60;;;8.05;;
1677;SDS011;6034;46.864;15.216;2024-03-08T12:17:58;12.30;;;9.90;;
1677;SDS011;6034;46.864;15.216;2024-03-08T12:20:27;11.57;;;8.20;;
1677;SDS011;6034;46.864;15.216;2024-03-08T12:22:56;9.82;;;8.15;;
1677;SDS011;6034;46.864;15.216;2024-03-08T12:25:27;11.85;;;7.82;;
1677;SDS011;6034;46.864;15.216;2024-03-08T12:28:07;10.80;;;8.95;;
1677;SDS011;6034;46.864;15.216;2024-03-08T12:30:43;10.73;;;8.40;;
1677;SDS011;6034;46.864;15.216;2024-03-08T12:33:13;12.30;;;8.52;;
1677;SDS011;6034;46.864;15.216;2024-03-08T12:35:49;12.45;;;9.05;;
1677;SDS011;6034;46.864;15.216;2024-03-08T12:38:20;10.90;;;8.57;;
1677;SDS011;6034;46.864;15.216;2024-03-08T12:40:51;12.98;;;10.07;;
1677;SDS011;6034;46.864;15.216;2024-03-08T12:43:23;12.50;;;9.65;;
1677;SDS011;6034;46.864;15.216;2024-03-08T12:45:50;15.25;;;9.20;;
1677;SDS011;6034;46.864;15.216;2024-03-08T12:48:20;12.90;;;9.68;;
1677;SDS011;6034;46.864;15.216;2024-03-08T12:50:47;10.95;;;9.30;;
1677;SDS011;6034;46.864;15.216;2024-03-08T12:53:16;11.88;;;8.85;;
1677;SDS011;6034;46.864;15.216;2024-03-08T12:55:44;11.63;;;8.18;;
1677;SDS011;6034;46.864;15.216;2024-03-08T12:58:13;9.90;;;8.90;;
1677;SDS011;6034;46.864;15.216;2024-03-08T13:00:41;14.43;;;9.32;;
1677;SDS011;6034;46.864;15.216;2024-03-08T13:03:09;10.43;;;8.35;;
1677;SDS011;6034;46.864;15.216;2024-03-08T13:05:36;11.45;;;8.43;;
1677;SDS011;6034;46.864;15.216;2024-03-08T13:08:07;11.20;;;8.93;;
1677;SDS011;6034;46.864;15.216;2024-03-08T13:10:38;12.52;;;9.85;;
1677;SDS011;6034;46.864;15.216;2024-03-08T13:13:08;12.68;;;9.30;;
1677;SDS011;6034;46.864;15.216;2024-03-08T13:15:38;10.85;;;9.23;;
1677;SDS011;6034;46.864;15.216;2024-03-08T13:18:07;12.65;;;10.00;;
1677;SDS011;6034;46.864;15.216;2024-03-08T13:20:35;12.00;;;9.57;;
1677;SDS011;6034;46.864;15.216;2024-03-08T13:23:03;15.10;;;10.05;;
1677;SDS011;6034;46.864;15.216;2024-03-08T13:25:33;10.13;;;8.05;;
1677;SDS011;6034;46.864;15.216;2024-03-08T13:28:04;12.20;;;9.82;;
1677;SDS011;6034;46.864;15.216;2024-03-08T13:30:32;14.52;;;10.20;;
1677;SDS011;6034;46.864;15.216;2024-03-08T13:33:02;12.38;;;9.80;;
1677;SDS011;6034;46.864;15.216;2024-03-08T13:35:30;13.73;;;10.70;;
1677;SDS011;6034;46.864;15.216;2024-03-08T13:37:57;11.93;;;9.90;;
1677;SDS011;6034;46.864;15.216;2024-03-08T13:40:28;11.77;;;9.85;;
1677;SDS011;6034;46.864;15.216;2024-03-08T13:42:56;17.13;;;10.55;;
1677;SDS011;6034;46.864;15.216;2024-03-08T13:45:26;14.38;;;9.73;;
1677;SDS011;6034;46.864;15.216;2024-03-08T13:47:53;12.32;;;10.10;;
1677;SDS011;6034;46.864;15.216;2024-03-08T13:50:23;15.10;;;12.27;;
1677;SDS011;6034;46.864;15.216;2024-03-08T13:52:52;12.57;;;11.27;;
1677;SDS011;6034;46.864;15.216;2024-03-08T13:55:19;11.13;;;9.48;;
1677;SDS011;6034;46.864;15.216;2024-03-08T13:57:47;13.82;;;10.63;;
1677;SDS011;6034;46.864;15.216;2024-03-08T14:00:16;12.52;;;10.88;;
1677;SDS011;6034;46.864;15.216;2024-03-08T14:02:47;14.00;;;10.45;;
1677;SDS011;6034;46.864;15.216;2024-03-08T14:05:15;12.65;;;9.95;;
1677;SDS011;6034;46.864;15.216;2024-03-08T14:07:47;13.68;;;10.35;;
1677;SDS011;6034;46.864;15.216;2024-03-08T14:10:15;14.07;;;11.35;;
1677;SDS011;6034;46.864;15.216;2024-03-08T14:12:45;13.25;;;11.10;;
1677;SDS011;6034;46.864;15.216;2024-03-08T14:15:13;14.43;;;11.82;;
1677;SDS011;6034;46.864;15.216;2024-03-08T14:17:41;13.48;;;11.70;;
1677;SDS011;6034;46.864;15.216;2024-03-08T14:20:11;13.77;;;10.82;;
1677;SDS011;6034;46.864;15.216;2024-03-08T14:22:39;15.65;;;12.60;;
1677;SDS011;6034;46.864;15.216;2024-03-08T14:25:08;14.60;;;11.25;;
1677;SDS011;6034;46.864;15.216;2024-03-08T14:27:42;14.55;;;11.23;;
1677;SDS011;6034;46.864;15.216;2024-03-08T14:30:10;16.70;;;12.85;;
1677;SDS011;6034;46.864;15.216;2024-03-08T14:32:38;13.75;;;10.45;;
1677;SDS011;6034;46.864;15.216;2024-03-08T14:35:06;15.88;;;11.90;;
1677;SDS011;6034;46.864;15.216;2024-03-08T14:37:36;15.15;;;12.35;;
1677;SDS011;6034;46.864;15.216;2024-03-08T14:40:04;18.77;;;13.75;;
1677;SDS011;6034;46.864;15.216;2024-03-08T14:42:35;14.48;;;10.82;;
1677;SDS011;6034;46.864;15.216;2024-03-08T14:45:03;16.02;;;12.05;;
1677;SDS011;6034;46.864;15.216;2024-03-08T14:47:32;17.40;;;12.32;;
1677;SDS011;6034;46.864;15.216;2024-03-08T14:50:00;18.27;;;12.68;;
1677;SDS011;6034;46.864;15.216;2024-03-08T14:52:27;15.15;;;11.82;;
1677;SDS011;6034;46.864;15.216;2024-03-08T14:54:55;15.80;;;13.38;;
1677;SDS011;6034;46.864;15.216;2024-03-08T14:57:23;17.95;;;14.27;;
1677;SDS011;6034;46.864;15.216;2024-03-08T14:59:52;18.77;;;13.23;;
1677;SDS011;6034;46.864;15.216;2024-03-08T15:02:19;18.42;;;13.10;;
1677;SDS011;6034;46.864;15.216;2024-03-08T15:04:47;14.93;;;12.35;;
1677;SDS011;6034;46.864;15.216;2024-03-08T15:07:22;15.02;;;11.98;;
1677;SDS011;6034;46.864;15.216;2024-03-08T15:09:51;15.02;;;11.90;;
1677;SDS011;6034;46.864;15.216;2024-03-08T15:12:20;16.23;;;12.77;;
1677;SDS011;6034;46.864;15.216;2024-03-08T15:14:49;15.95;;;11.57;;
1677;SDS011;6034;46.864;15.216;2024-03-08T15:17:18;17.25;;;14.93;;
1677;SDS011;6034;46.864;15.216;2024-03-08T15:19:47;20.17;;;14.52;;
1677;SDS011;6034;46.864;15.216;2024-03-08T15:22:15;18.85;;;13.38;;
1677;SDS011;6034;46.864;15.216;2024-03-08T15:24:43;18.00;;;14.00;;
1677;SDS011;6034;46.864;15.216;2024-03-08T15:27:10;18.60;;;13.68;;
1677;SDS011;6034;46.864;15.216;2024-03-08T15:29:38;21.00;;;15.55;;
1677;SDS011;6034;46.864;15.216;2024-03-08T15:32:07;20.40;;;14.73;;
1677;SDS011;6034;46.864;15.216;2024-03-08T15:34:37;27.02;;;15.80;;
1677;SDS011;6034;46.864;15.216;2024-03-08T15:37:09;20.35;;;15.30;;
1677;SDS011;6034;46.864;15.216;2024-03-08T15:39:40;21.98;;;16.83;;
1677;SDS011;6034;46.864;15.216;2024-03-08T15:42:08;22.13;;;17.55;;
1677;SDS011;6034;46.864;15.216;2024-03-08T15:44:36;20.42;;;15.05;;
1677;SDS011;6034;46.864;15.216;2024-03-08T15:47:04;18.33;;;14.00;;
1677;SDS011;6034;46.864;15.216;2024-03-08T15:49:34;23.05;;;15.50;;
1677;SDS011;6034;46.864;15.216;2024-03-08T15:52:01;21.23;;;14.48;;
1677;SDS011;6034;46.864;15.216;2024-03-08T15:54:31;18.73;;;14.73;;
1677;SDS011;6034;46.864;15.216;2024-03-08T15:56:58;23.92;;;16.67;;
1677;SDS011;6034;46.864;15.216;2024-03-08T15:59:32;23.23;;;16.55;;
1677;SDS011;6034;46.864;15.216;2024-03-08T16:02:02;20.40;;;15.70;;
1677;SDS011;6034;46.864;15.216;2024-03-08T16:04:30;23.17;;;16.13;;
1677;SDS011;6034;46.864;15.216;2024-03-08T16:06:58;23.98;;;16.40;;
1677;SDS011;6034;46.864;15.216;2024-03-08T16:09:26;29.35;;;17.92;;
1677;SDS011;6034;46.864;15.216;2024-03-08T16:11:56;20.33;;;17.08;;
1677;SDS011;6034;46.864;15.216;2024-03-08T16:14:24;26.92;;;18.85;;
1677;SDS011;6034;46.864;15.216;2024-03-08T16:16:51;24.55;;;17.45;;
1677;SDS011;6034;46.864;15.216;2024-03-08T16:19:19;23.95;;;19.20;;
1677;SDS011;6034;46.864;15.216;2024-03-08T16:21:48;23.90;;;15.95;;
1677;SDS011;6034;46.864;15.216;2024-03-08T16:24:17;29.52;;;19.15;;
1677;SDS011;6034;46.864;15.216;2024-03-08T16:26:44;24.90;;;18.73;;
1677;SDS011;6034;46.864;15.216;2024-03-08T16:29:11;33.28;;;23.65;;
1677;SDS011;6034;46.864;15.216;2024-03-08T16:31:39;28.17;;;18.27;;
1677;SDS011;6034;46.864;15.216;2024-03-08T16:34:10;24.88;;;17.08;;
1677;SDS011;6034;46.864;15.216;2024-03-08T16:36:39;23.48;;;16.30;;
1677;SDS011;6034;46.864;15.216;2024-03-08T16:39:07;23.33;;;18.27;;
1677;SDS011;6034;46.864;15.216;2024-03-08T16:41:36;26.40;;;17.25;;
1677;SDS011;6034;46.864;15.216;2024-03-08T16:44:03;23.58;;;17.25;;
1677;SDS011;6034;46.864;15.216;2024-03-08T16:46:31;22.40;;;17.95;;
1677;SDS011;6034;46.864;15.216;2024-03-08T16:48:58;23.25;;;17.42;;
1677;SDS011;6034;46.864;15.216;2024-03-08T16:51:29;23.65;;;17.08;;
1677;SDS011;6034;46.864;15.216;2024-03-08T16:53:58;25.40;;;17.33;;
1677;SDS011;6034;46.864;15.216;2024-03-08T16:56:27;26.15;;;17.67;;
1677;SDS011;6034;46.864;15.216;2024-03-08T16:58:57;26.65;;;19.20;;
1677;SDS011;6034;46.864;15.216;2024-03-08T17:01:29;24.30;;;18.05;;
1677;SDS011;6034;46.864;15.216;2024-03-08T17:03:58;21.55;;;17.63;;
1677;SDS011;6034;46.864;15.216;2024-03-08T17:06:27;24.30;;;17.48;;
1677;SDS011;6034;46.864;15.216;2024-03-08T17:08:55;23.95;;;17.40;;
1677;SDS011;6034;46.864;15.216;2024-03-08T17:11:24;21.80;;;17.42;;
1677;SDS011;6034;46.864;15.216;2024-03-08T17:13:52;24.27;;;17.88;;
1677;SDS011;6034;46.864;15.216;2024-03-08T17:16:21;25.05;;;17.70;;
1677;SDS011;6034;46.864;15.216;2024-03-08T17:18:49;25.70;;;18.10;;
1677;SDS011;6034;46.864;15.216;2024-03-08T17:21:17;22.65;;;16.88;;
1677;SDS011;6034;46.864;15.216;2024-03-08T17:23:44;25.30;;;18.33;;
1677;SDS011;6034;46.864;15.216;2024-03-08T17:26:12;27.10;;;17.92;;
1677;SDS011;6034;46.864;15.216;2024-03-08T17:28:42;24.25;;;16.83;;
1677;SDS011;6034;46.864;15.216;2024-03-08T17:31:11;23.48;;;17.58;;
1677;SDS011;6034;46.864;15.216;2024-03-08T17:33:40;27.02;;;16.92;;
1677;SDS011;6034;46.864;15.216;2024-03-08T17:36:08;22.50;;;16.55;;
1677;SDS011;6034;46.864;15.216;2024-03-08T17:38:36;23.70;;;16.77;;
1677;SDS011;6034;46.864;15.216;2024-03-08T17:41:09;24.23;;;17.65;;
1677;SDS011;6034;46.864;15.216;2024-03-08T17:43:37;26.77;;;18.52;;
1677;SDS011;6034;46.864;15.216;2024-03-08T17:46:06;26.33;;;18.67;;
1677;SDS011;6034;46.864;15.216;2024-03-08T17:48:34;24.65;;;18.50;;
1677;SDS011;6034;46.864;15.216;2024-03-08T17:51:03;24.65;;;18.75;;
1677;SDS011;6034;46.864;15.216;2024-03-08T17:53:32;24.65;;;18.02;;
1677;SDS011;6034;46.864;15.216;2024-03-08T17:56:00;28.25;;;19.00;;
1677;SDS011;6034;46.864;15.216;2024-03-08T17:58:31;30.08;;;20.20;;
1677;SDS011;6034;46.864;15.216;2024-03-08T18:00:58;28.90;;;19.50;;
1677;SDS011;6034;46.864;15.216;2024-03-08T18:03:26;29.23;;;20.30;;
1677;SDS011;6034;46.864;15.216;2024-03-08T18:05:54;25.08;;;18.48;;
1677;SDS011;6034;46.864;15.216;2024-03-08T18:08:23;33.53;;;21.77;;
1677;SDS011;6034;46.864;15.216;2024-03-08T18:10:50;29.75;;;22.20;;
1677;SDS011;6034;46.864;15.216;2024-03-08T18:13:17;27.73;;;20.45;;
1677;SDS011;6034;46.864;15.216;2024-03-08T18:15:46;34.10;;;22.30;;
1677;SDS011;6034;46.864;15.216;2024-03-08T18:18:14;27.60;;;20.10;;
1677;SDS011;6034;46.864;15.216;2024-03-08T18:20:42;28.25;;;21.58;;
1677;SDS011;6034;46.864;15.216;2024-03-08T18:23:13;28.38;;;20.85;;
1677;SDS011;6034;46.864;15.216;2024-03-08T18:25:42;26.65;;;20.08;;
1677;SDS011;6034;46.864;15.216;2024-03-08T18:28:10;28.15;;;20.30;;
1677;SDS011;6034;46.864;15.216;2024-03-08T18:30:37;26.38;;;19.23;;
1677;SDS011;6034;46.864;15.216;2024-03-08T18:33:06;24.10;;;18.23;;
1677;SDS011;6034;46.864;15.216;2024-03-08T18:35:37;33.75;;;22.27;;
1677;SDS011;6034;46.864;15.216;2024-03-08T18:38:06;33.17;;;21.20;;
1677;SDS011;6034;46.864;15.216;2024-03-08T18:40:35;28.17;;;19.58;;
1677;SDS011;6034;46.864;15.216;2024-03-08T18:43:06;24.55;;;18.80;;
1677;SDS011;6034;46.864;15.216;2024-03-08T18:45:35;25.58;;;18.63;;
1677;SDS011;6034;46.864;15.216;2024-03-08T18:48:03;30.05;;;21.05;;
1677;SDS011;6034;46.864;15.216;2024-03-08T18:50:31;29.25;;;21.15;;
1677;SDS011;6034;46.864;15.216;2024-03-08T18:52:59;25.27;;;19.92;;
1677;SDS011;6034;46.864;15.216;2024-03-08T18:55:27;35.38;;;21.88;;
1677;SDS011;6034;46.864;15.216;2024-03-08T18:57:56;31.80;;;21.00;;
1677;SDS011;6034;46.864;15.216;2024-03-08T19:00:27;31.80;;;20.10;;
1677;SDS011;6034;46.864;15.216;2024-03-08T19:03:02;33.22;;;21.10;;
1677;SDS011;6034;46.864;15.216;2024-03-08T19:05:34;29.90;;;21.13;;
1677;SDS011;6034;46.864;15.216;2024-03-08T19:08:02;32.45;;;22.00;;
1677;SDS011;6034;46.864;15.216;2024-03-08T19:10:33;32.03;;;22.58;;
1677;SDS011;6034;46.864;15.216;2024-03-08T19:13:02;31.30;;;21.27;;
1677;SDS011;6034;46.864;15.216;2024-03-08T19:15:33;29.42;;;21.73;;
1677;SDS011;6034;46.864;15.216;2024-03-08T19:18:00;31.95;;;22.75;;
1677;SDS011;6034;46.864;15.216;2024-03-08T19:20:30;31.23;;;23.17;;
1677;SDS011;6034;46.864;15.216;2024-03-08T19:22:59;37.65;;;23.20;;
1677;SDS011;6034;46.864;15.216;2024-03-08T19:25:27;31.73;;;21.67;;
1677;SDS011;6034;46.864;15.216;2024-03-08T19:27:57;33.90;;;23.67;;
1677;SDS011;6034;46.864;15.216;2024-03-08T19:30:26;35.75;;;23.02;;
1677;SDS011;6034;46.864;15.216;2024-03-08T19:32:57;34.25;;;23.52;;
1677;SDS011;6034;46.864;15.216;2024-03-08T19:35:26;35.38;;;23.50;;
1677;SDS011;6034;46.864;15.216;2024-03-08T19:37:55;36.00;;;22.75;;
1677;SDS011;6034;46.864;15.216;2024-03-08T19:40:25;36.65;;;25.95;;
1677;SDS011;6034;46.864;15.216;2024-03-08T19:42:57;33.50;;;24.63;;
1677;SDS011;6034;46.864;15.216;2024-03-08T19:45:26;38.55;;;24.98;;
1677;SDS011;6034;46.864;15.216;2024-03-08T19:47:55;29.98;;;21.40;;
1677;SDS011;6034;46.864;15.216;2024-03-08T19:50:26;37.63;;;24.52;;
1677;SDS011;6034;46.864;15.216;2024-03-08T19:52:55;32.90;;;22.60;;
1677;SDS011;6034;46.864;15.216;2024-03-08T19:55:29;38.20;;;24.85;;
1677;SDS011;6034;46.864;15.216;2024-03-08T19:57:57;37.22;;;24.85;;
1677;SDS011;6034;46.864;15.216;2024-03-08T20:00:26;35.17;;;22.67;;
1677;SDS011;6034;46.864;15.216;2024-03-08T20:02:54;36.28;;;25.77;;
1677;SDS011;6034;46.864;15.216;2024-03-08T20:05:27;36.67;;;25.77;;
1677;SDS011;6034;46.864;15.216;2024-03-08T20:07:58;39.72;;;26.15;;
1677;SDS011;6034;46.864;15.216;2024-03-08T20:10:30;38.80;;;24.63;;
1677;SDS011;6034;46.864;15.216;2024-03-08T20:13:01;39.35;;;26.65;;
1677;SDS011;6034;46.864;15.216;2024-03-08T20:15:32;35.00;;;24.92;;
1677;SDS011;6034;46.864;15.216;2024-03-08T20:18:03;41.03;;;25.45;;
1677;SDS011;6034;46.864;15.216;2024-03-08T20:20:32;38.70;;;24.33;;
1677;SDS011;6034;46.864;15.216;2024-03-08T20:23:00;34.28;;;23.42;;
1677;SDS011;6034;46.864;15.216;2024-03-08T20:25:28;40.95;;;25.67;;
1677;SDS011;6034;46.864;15.216;2024-03-08T20:27:57;35.63;;;23.98;;
1677;SDS011;6034;46.864;15.216;2024-03-08T20:30:26;34.65;;;24.83;;
1677;SDS011;6034;46.864;15.216;2024-03-08T20:32:55;34.83;;;23.83;;
1677;SDS011;6034;46.864;15.216;2024-03-08T20:35:24;33.83;;;24.25;;
1677;SDS011;6034;46.864;15.216;2024-03-08T20:37:55;39.08;;;25.52;;
1677;SDS011;6034;46.864;15.216;2024-03-08T20:40:24;36.42;;;26.52;;
1677;SDS011;6034;46.864;15.216;2024-03-08T20:42:57;34.58;;;23.35;;
1677;SDS011;6034;46.864;15.216;2024-03-08T20:45:25;33.58;;;24.10;;
1677;SDS011;6034;46.864;15.216;2024-03-08T20:47:52;40.88;;;26.95;;
1677;SDS011;6034;46.864;15.216;2024-03-08T20:50:20;37.78;;;26.10;;
1677;SDS011;6034;46.864;15.216;2024-03-08T20:52:49;37.20;;;24.88;;
1677;SDS011;6034;46.864;15.216;2024-03-08T20:55:19;34.75;;;25.13;;
1677;SDS011;6034;46.864;15.216;2024-03-08T20:57:49;29.98;;;22.48;;